sensor_id;sensor_type;location;lat;lon;timestamp;P1;durP1;ratioP1;P2;durP2;ratioP2
51292;SDS011;37377;45.186;9.778;2023-09-30T00:01:14;63.47;;;44.65;;
51292;SDS011;37377;45.186;9.778;2023-09-30T00:03:46;59.10;;;44.60;;
51292;SDS011;37377;45.186;9.778;2023-09-30T00:06:35;57.17;;;45.63;;
51292;SDS011;37377;45.186;9.778;2023-09-30T00:09:02;65.47;;;45.63;;
51292;SDS011;37377;45.186;9.778;2023-09-30T00:11:33;62.50;;;47.53;;
51292;SDS011;37377;45.186;9.778;2023-09-30T00:14:40;60.13;;;48.05;;
51292;SDS011;37377;45.186;9.778;2023-09-30T00:17:08;66.47;;;46.40;;
51292;SDS011;37377;45.186;9.778;2023-09-30T00:25:32;59.30;;;47.70;;
51292;SDS011;37377;45.186;9.778;2023-09-30T00:28:09;65.13;;;47.30;;
51292;SDS011;37377;45.186;9.778;2023-09-30T00:30:43;60.75;;;47.17;;
51292;SDS011;37377;45.186;9.778;2023-09-30T00:33:17;65.97;;;47.17;;
51292;SDS011;37377;45.186;9.778;2023-09-30T00:35:51;66.93;;;46.13;;
51292;SDS011;37377;45.186;9.778;2023-09-30T00:38:18;63.40;;;46.67;;
51292;SDS011;37377;45.186;9.778;2023-09-30T00:40:48;63.10;;;44.97;;
51292;SDS011;37377;45.186;9.778;2023-09-30T00:43:20;55.58;;;45.30;;
51292;SDS011;37377;45.186;9.778;2023-09-30T00:48:37;59.53;;;45.47;;
51292;SDS011;37377;45.186;9.778;2023-09-30T00:51:09;57.35;;;41.75;;
51292;SDS011;37377;45.186;9.778;2023-09-30T00:53:44;87.68;;;45.53;;
51292;SDS011;37377;45.186;9.778;2023-09-30T00:56:11;68.55;;;47.50;;
51292;SDS011;37377;45.186;9.778;2023-09-30T00:58:39;70.13;;;45.13;;
51292;SDS011;37377;45.186;9.778;2023-09-30T01:01:07;60.72;;;46.38;;
51292;SDS011;37377;45.186;9.778;2023-09-30T01:03:36;62.00;;;43.22;;
51292;SDS011;37377;45.186;9.778;2023-09-30T01:06:06;59.55;;;46.00;;
51292;SDS011;37377;45.186;9.778;2023-09-30T01:08:40;71.35;;;50.20;;
51292;SDS011;37377;45.186;9.778;2023-09-30T01:11:08;58.45;;;47.20;;
51292;SDS011;37377;45.186;9.778;2023-09-30T01:13:41;78.97;;;50.70;;
51292;SDS011;37377;45.186;9.778;2023-09-30T01:17:51;65.03;;;50.22;;
51292;SDS011;37377;45.186;9.778;2023-09-30T01:20:45;70.13;;;49.45;;
51292;SDS011;37377;45.186;9.778;2023-09-30T01:23:15;69.72;;;50.92;;
51292;SDS011;37377;45.186;9.778;2023-09-30T01:25:49;67.10;;;49.20;;
51292;SDS011;37377;45.186;9.778;2023-09-30T01:28:22;71.10;;;51.33;;
51292;SDS011;37377;45.186;9.778;2023-09-30T01:33:50;64.63;;;51.13;;
51292;SDS011;37377;45.186;9.778;2023-09-30T01:36:23;67.75;;;52.35;;
51292;SDS011;37377;45.186;9.778;2023-09-30T01:38:53;72.93;;;51.47;;
51292;SDS011;37377;45.186;9.778;2023-09-30T01:41:35;63.85;;;53.00;;
51292;SDS011;37377;45.186;9.778;2023-09-30T01:44:02;73.43;;;53.70;;
51292;SDS011;37377;45.186;9.778;2023-09-30T01:46:31;76.15;;;54.03;;
51292;SDS011;37377;45.186;9.778;2023-09-30T01:49:02;71.75;;;54.28;;
51292;SDS011;37377;45.186;9.778;2023-09-30T01:51:33;64.80;;;51.45;;
51292;SDS011;37377;45.186;9.778;2023-09-30T01:54:03;75.25;;;53.55;;
51292;SDS011;37377;45.186;9.778;2023-09-30T01:56:31;67.97;;;53.53;;
51292;SDS011;37377;45.186;9.778;2023-09-30T01:58:59;65.78;;;54.25;;
51292;SDS011;37377;45.186;9.778;2023-09-30T02:01:37;67.78;;;53.97;;
51292;SDS011;37377;45.186;9.778;2023-09-30T02:04:15;67.13;;;54.53;;
51292;SDS011;37377;45.186;9.778;2023-09-30T02:06:45;67.85;;;54.53;;
51292;SDS011;37377;45.186;9.778;2023-09-30T02:09:16;59.00;;;51.58;;
51292;SDS011;37377;45.186;9.778;2023-09-30T02:12:21;65.13;;;50.13;;
51292;SDS011;37377;45.186;9.778;2023-09-30T02:14:54;68.15;;;49.33;;
51292;SDS011;37377;45.186;9.778;2023-09-30T02:17:24;58.63;;;48.40;;
51292;SDS011;37377;45.186;9.778;2023-09-30T02:19:51;58.97;;;49.70;;
51292;SDS011;37377;45.186;9.778;2023-09-30T02:22:20;56.25;;;48.80;;
51292;SDS011;37377;45.186;9.778;2023-09-30T02:25:20;72.68;;;51.38;;
51292;SDS011;37377;45.186;9.778;2023-09-30T02:27:53;61.83;;;52.13;;
51292;SDS011;37377;45.186;9.778;2023-09-30T02:30:28;62.42;;;50.53;;
51292;SDS011;37377;45.186;9.778;2023-09-30T02:32:56;69.18;;;54.90;;
51292;SDS011;37377;45.186;9.778;2023-09-30T02:35:55;72.35;;;52.28;;
51292;SDS011;37377;45.186;9.778;2023-09-30T02:38:31;66.07;;;52.40;;
51292;SDS011;37377;45.186;9.778;2023-09-30T02:41:12;64.88;;;54.22;;
51292;SDS011;37377;45.186;9.778;2023-09-30T02:43:39;69.57;;;54.30;;
51292;SDS011;37377;45.186;9.778;2023-09-30T02:46:24;72.73;;;54.13;;
51292;SDS011;37377;45.186;9.778;2023-09-30T02:49:01;62.50;;;52.13;;
51292;SDS011;37377;45.186;9.778;2023-09-30T02:51:30;64.43;;;53.60;;
51292;SDS011;37377;45.186;9.778;2023-09-30T02:53:58;65.90;;;53.53;;
51292;SDS011;37377;45.186;9.778;2023-09-30T02:56:37;68.30;;;54.67;;
51292;SDS011;37377;45.186;9.778;2023-09-30T02:59:08;76.35;;;56.00;;
51292;SDS011;37377;45.186;9.778;2023-09-30T03:01:38;71.25;;;56.15;;
51292;SDS011;37377;45.186;9.778;2023-09-30T03:04:06;70.32;;;54.58;;
51292;SDS011;37377;45.186;9.778;2023-09-30T03:06:34;63.03;;;52.70;;
51292;SDS011;37377;45.186;9.778;2023-09-30T03:09:05;80.63;;;53.38;;
51292;SDS011;37377;45.186;9.778;2023-09-30T03:11:32;80.18;;;56.55;;
51292;SDS011;37377;45.186;9.778;2023-09-30T03:14:01;74.15;;;59.03;;
51292;SDS011;37377;45.186;9.778;2023-09-30T03:16:29;70.70;;;56.47;;
51292;SDS011;37377;45.186;9.778;2023-09-30T03:18:57;69.60;;;58.38;;
51292;SDS011;37377;45.186;9.778;2023-09-30T03:21:24;71.20;;;60.15;;
51292;SDS011;37377;45.186;9.778;2023-09-30T03:23:51;87.00;;;60.20;;
51292;SDS011;37377;45.186;9.778;2023-09-30T03:26:19;79.15;;;60.80;;
51292;SDS011;37377;45.186;9.778;2023-09-30T03:28:47;73.70;;;61.03;;
51292;SDS011;37377;45.186;9.778;2023-09-30T03:31:19;69.75;;;59.72;;
51292;SDS011;37377;45.186;9.778;2023-09-30T03:33:46;72.47;;;57.40;;
51292;SDS011;37377;45.186;9.778;2023-09-30T03:36:17;76.47;;;56.63;;
51292;SDS011;37377;45.186;9.778;2023-09-30T03:38:45;72.50;;;58.85;;
51292;SDS011;37377;45.186;9.778;2023-09-30T03:41:13;77.15;;;60.47;;
51292;SDS011;37377;45.186;9.778;2023-09-30T03:43:40;73.28;;;57.50;;
51292;SDS011;37377;45.186;9.778;2023-09-30T03:46:08;77.93;;;59.53;;
51292;SDS011;37377;45.186;9.778;2023-09-30T03:48:35;83.13;;;58.00;;
51292;SDS011;37377;45.186;9.778;2023-09-30T03:51:10;75.68;;;58.70;;
51292;SDS011;37377;45.186;9.778;2023-09-30T03:53:46;76.32;;;60.33;;
51292;SDS011;37377;45.186;9.778;2023-09-30T03:56:13;71.10;;;59.38;;
51292;SDS011;37377;45.186;9.778;2023-09-30T03:58:40;70.95;;;58.22;;
51292;SDS011;37377;45.186;9.778;2023-09-30T04:01:09;71.07;;;58.63;;
51292;SDS011;37377;45.186;9.778;2023-09-30T04:03:43;77.35;;;58.17;;
51292;SDS011;37377;45.186;9.778;2023-09-30T04:06:11;72.15;;;59.15;;
51292;SDS011;37377;45.186;9.778;2023-09-30T04:08:39;68.28;;;58.55;;
51292;SDS011;37377;45.186;9.778;2023-09-30T04:11:10;70.40;;;60.60;;
51292;SDS011;37377;45.186;9.778;2023-09-30T04:13:44;67.28;;;58.33;;
51292;SDS011;37377;45.186;9.778;2023-09-30T04:16:11;79.97;;;57.15;;
51292;SDS011;37377;45.186;9.778;2023-09-30T04:18:38;72.93;;;57.22;;
51292;SDS011;37377;45.186;9.778;2023-09-30T04:21:07;67.40;;;57.20;;
51292;SDS011;37377;45.186;9.778;2023-09-30T04:23:35;72.72;;;59.47;;
51292;SDS011;37377;45.186;9.778;2023-09-30T04:26:05;84.18;;;58.58;;
51292;SDS011;37377;45.186;9.778;2023-09-30T04:28:32;72.63;;;57.17;;
51292;SDS011;37377;45.186;9.778;2023-09-30T04:31:00;70.55;;;56.53;;
51292;SDS011;37377;45.186;9.778;2023-09-30T04:33:48;68.80;;;55.10;;
51292;SDS011;37377;45.186;9.778;2023-09-30T04:36:17;66.78;;;53.38;;
51292;SDS011;37377;45.186;9.778;2023-09-30T04:38:45;59.35;;;53.00;;
51292;SDS011;37377;45.186;9.778;2023-09-30T04:41:12;76.47;;;55.97;;
51292;SDS011;37377;45.186;9.778;2023-09-30T04:43:39;74.80;;;58.17;;
51292;SDS011;37377;45.186;9.778;2023-09-30T04:46:33;74.85;;;57.33;;
51292;SDS011;37377;45.186;9.778;2023-09-30T04:48:57;73.40;;;56.17;;
51292;SDS011;37377;45.186;9.778;2023-09-30T04:51:24;75.47;;;58.55;;
51292;SDS011;37377;45.186;9.778;2023-09-30T04:53:52;66.78;;;56.05;;
51292;SDS011;37377;45.186;9.778;2023-09-30T04:56:22;68.18;;;57.72;;
51292;SDS011;37377;45.186;9.778;2023-09-30T04:58:51;77.20;;;57.67;;
51292;SDS011;37377;45.186;9.778;2023-09-30T05:01:19;81.18;;;59.67;;
51292;SDS011;37377;45.186;9.778;2023-09-30T05:03:46;66.22;;;56.45;;
51292;SDS011;37377;45.186;9.778;2023-09-30T05:06:16;68.03;;;58.05;;
51292;SDS011;37377;45.186;9.778;2023-09-30T05:08:43;75.40;;;58.90;;
51292;SDS011;37377;45.186;9.778;2023-09-30T05:11:10;79.57;;;62.35;;
51292;SDS011;37377;45.186;9.778;2023-09-30T05:13:37;84.65;;;62.97;;
51292;SDS011;37377;45.186;9.778;2023-09-30T05:16:04;89.25;;;64.60;;
51292;SDS011;37377;45.186;9.778;2023-09-30T05:18:56;76.80;;;65.85;;
51292;SDS011;37377;45.186;9.778;2023-09-30T05:21:24;81.65;;;66.95;;
51292;SDS011;37377;45.186;9.778;2023-09-30T05:23:51;92.53;;;68.20;;
51292;SDS011;37377;45.186;9.778;2023-09-30T05:26:19;79.75;;;68.35;;
51292;SDS011;37377;45.186;9.778;2023-09-30T05:28:46;79.85;;;67.43;;
51292;SDS011;37377;45.186;9.778;2023-09-30T05:31:13;78.43;;;64.63;;
51292;SDS011;37377;45.186;9.778;2023-09-30T05:33:41;88.55;;;64.05;;
51292;SDS011;37377;45.186;9.778;2023-09-30T05:36:08;78.00;;;61.75;;
51292;SDS011;37377;45.186;9.778;2023-09-30T05:38:35;73.93;;;61.38;;
51292;SDS011;37377;45.186;9.778;2023-09-30T05:41:02;73.97;;;62.42;;
51292;SDS011;37377;45.186;9.778;2023-09-30T05:43:30;77.05;;;62.47;;
51292;SDS011;37377;45.186;9.778;2023-09-30T05:45:57;76.63;;;60.70;;
51292;SDS011;37377;45.186;9.778;2023-09-30T05:48:28;85.53;;;63.20;;
51292;SDS011;37377;45.186;9.778;2023-09-30T05:50:55;76.78;;;63.17;;
51292;SDS011;37377;45.186;9.778;2023-09-30T05:56:21;75.43;;;58.83;;
51292;SDS011;37377;45.186;9.778;2023-09-30T05:58:49;70.43;;;57.97;;
51292;SDS011;37377;45.186;9.778;2023-09-30T06:01:16;78.35;;;58.35;;
51292;SDS011;37377;45.186;9.778;2023-09-30T06:03:46;76.90;;;57.80;;
51292;SDS011;37377;45.186;9.778;2023-09-30T06:10:39;62.60;;;50.25;;
51292;SDS011;37377;45.186;9.778;2023-09-30T06:13:11;68.68;;;51.65;;
51292;SDS011;37377;45.186;9.778;2023-09-30T06:15:43;73.50;;;48.20;;
51292;SDS011;37377;45.186;9.778;2023-09-30T06:18:10;60.60;;;44.80;;
51292;SDS011;37377;45.186;9.778;2023-09-30T06:20:40;56.00;;;42.83;;
51292;SDS011;37377;45.186;9.778;2023-09-30T06:23:08;62.92;;;44.33;;
51292;SDS011;37377;45.186;9.778;2023-09-30T06:25:36;57.78;;;39.92;;
51292;SDS011;37377;45.186;9.778;2023-09-30T06:28:03;62.50;;;40.92;;
51292;SDS011;37377;45.186;9.778;2023-09-30T06:30:30;59.58;;;42.67;;
51292;SDS011;37377;45.186;9.778;2023-09-30T06:33:00;55.55;;;39.03;;
51292;SDS011;37377;45.186;9.778;2023-09-30T06:35:28;53.97;;;39.97;;
51292;SDS011;37377;45.186;9.778;2023-09-30T06:37:57;55.80;;;38.42;;
51292;SDS011;37377;45.186;9.778;2023-09-30T06:40:24;54.63;;;39.88;;
51292;SDS011;37377;45.186;9.778;2023-09-30T06:42:50;50.42;;;33.60;;
51292;SDS011;37377;45.186;9.778;2023-09-30T06:45:18;44.05;;;34.85;;
51292;SDS011;37377;45.186;9.778;2023-09-30T06:47:45;46.83;;;35.10;;
51292;SDS011;37377;45.186;9.778;2023-09-30T06:50:13;50.40;;;35.30;;
51292;SDS011;37377;45.186;9.778;2023-09-30T06:52:43;48.20;;;34.40;;
51292;SDS011;37377;45.186;9.778;2023-09-30T06:55:16;47.78;;;34.70;;
51292;SDS011;37377;45.186;9.778;2023-09-30T06:57:43;41.45;;;31.52;;
51292;SDS011;37377;45.186;9.778;2023-09-30T07:00:11;44.90;;;31.70;;
51292;SDS011;37377;45.186;9.778;2023-09-30T07:02:40;50.58;;;33.45;;
51292;SDS011;37377;45.186;9.778;2023-09-30T07:05:08;50.92;;;33.05;;
51292;SDS011;37377;45.186;9.778;2023-09-30T07:07:36;47.42;;;32.92;;
51292;SDS011;37377;45.186;9.778;2023-09-30T07:10:05;52.72;;;31.73;;
51292;SDS011;37377;45.186;9.778;2023-09-30T07:12:32;51.00;;;34.33;;
51292;SDS011;37377;45.186;9.778;2023-09-30T07:15:03;52.40;;;31.20;;
51292;SDS011;37377;45.186;9.778;2023-09-30T07:17:32;37.25;;;29.65;;
51292;SDS011;37377;45.186;9.778;2023-09-30T07:20:04;45.10;;;30.30;;
51292;SDS011;37377;45.186;9.778;2023-09-30T07:22:32;44.65;;;30.73;;
51292;SDS011;37377;45.186;9.778;2023-09-30T07:25:18;42.17;;;30.83;;
51292;SDS011;37377;45.186;9.778;2023-09-30T07:27:45;44.25;;;30.40;;
51292;SDS011;37377;45.186;9.778;2023-09-30T07:30:15;47.20;;;30.50;;
51292;SDS011;37377;45.186;9.778;2023-09-30T07:32:43;45.38;;;29.00;;
51292;SDS011;37377;45.186;9.778;2023-09-30T07:35:11;44.28;;;29.25;;
51292;SDS011;37377;45.186;9.778;2023-09-30T07:37:38;48.00;;;28.75;;
51292;SDS011;37377;45.186;9.778;2023-09-30T07:40:06;49.83;;;30.05;;
51292;SDS011;37377;45.186;9.778;2023-09-30T07:42:33;37.33;;;28.58;;
51292;SDS011;37377;45.186;9.778;2023-09-30T07:45:01;52.40;;;31.15;;
51292;SDS011;37377;45.186;9.778;2023-09-30T07:47:31;46.90;;;30.45;;
51292;SDS011;37377;45.186;9.778;2023-09-30T07:50:00;45.95;;;30.05;;
51292;SDS011;37377;45.186;9.778;2023-09-30T07:52:37;47.35;;;30.67;;
51292;SDS011;37377;45.186;9.778;2023-09-30T07:55:06;43.63;;;29.52;;
51292;SDS011;37377;45.186;9.778;2023-09-30T07:57:35;49.50;;;30.98;;
51292;SDS011;37377;45.186;9.778;2023-09-30T08:00:02;54.85;;;31.98;;
51292;SDS011;37377;45.186;9.778;2023-09-30T08:02:35;44.55;;;32.13;;
51292;SDS011;37377;45.186;9.778;2023-09-30T08:05:03;45.55;;;31.17;;
51292;SDS011;37377;45.186;9.778;2023-09-30T08:07:32;53.95;;;30.83;;
51292;SDS011;37377;45.186;9.778;2023-09-30T08:10:00;50.85;;;29.75;;
51292;SDS011;37377;45.186;9.778;2023-09-30T08:12:31;52.05;;;29.88;;
51292;SDS011;37377;45.186;9.778;2023-09-30T08:14:59;38.97;;;28.35;;
51292;SDS011;37377;45.186;9.778;2023-09-30T08:17:25;44.22;;;29.70;;
51292;SDS011;37377;45.186;9.778;2023-09-30T08:19:52;47.60;;;31.85;;
51292;SDS011;37377;45.186;9.778;2023-09-30T08:22:19;55.13;;;32.35;;
51292;SDS011;37377;45.186;9.778;2023-09-30T08:24:46;39.42;;;30.08;;
51292;SDS011;37377;45.186;9.778;2023-09-30T08:27:13;49.55;;;31.83;;
51292;SDS011;37377;45.186;9.778;2023-09-30T08:29:40;41.03;;;26.67;;
51292;SDS011;37377;45.186;9.778;2023-09-30T08:32:07;43.05;;;29.95;;
51292;SDS011;37377;45.186;9.778;2023-09-30T08:34:34;61.95;;;34.90;;
51292;SDS011;37377;45.186;9.778;2023-09-30T08:37:01;55.67;;;33.15;;
51292;SDS011;37377;45.186;9.778;2023-09-30T08:39:27;58.05;;;33.67;;
51292;SDS011;37377;45.186;9.778;2023-09-30T08:41:55;50.45;;;32.53;;
51292;SDS011;37377;45.186;9.778;2023-09-30T08:44:23;60.13;;;35.75;;
51292;SDS011;37377;45.186;9.778;2023-09-30T08:46:50;58.28;;;34.70;;
51292;SDS011;37377;45.186;9.778;2023-09-30T08:49:17;59.42;;;36.20;;
51292;SDS011;37377;45.186;9.778;2023-09-30T08:51:44;59.05;;;37.38;;
51292;SDS011;37377;45.186;9.778;2023-09-30T08:54:12;48.85;;;33.38;;
51292;SDS011;37377;45.186;9.778;2023-09-30T08:56:38;53.67;;;36.85;;
51292;SDS011;37377;45.186;9.778;2023-09-30T08:59:07;57.92;;;34.65;;
51292;SDS011;37377;45.186;9.778;2023-09-30T09:01:36;55.17;;;33.85;;
51292;SDS011;37377;45.186;9.778;2023-09-30T09:04:04;55.00;;;34.28;;
51292;SDS011;37377;45.186;9.778;2023-09-30T09:06:33;56.45;;;31.40;;
51292;SDS011;37377;45.186;9.778;2023-09-30T09:09:12;49.03;;;31.52;;
51292;SDS011;37377;45.186;9.778;2023-09-30T09:11:46;45.30;;;32.08;;
51292;SDS011;37377;45.186;9.778;2023-09-30T09:14:13;51.33;;;33.20;;
51292;SDS011;37377;45.186;9.778;2023-09-30T09:16:51;60.05;;;35.20;;
51292;SDS011;37377;45.186;9.778;2023-09-30T09:19:19;44.95;;;31.25;;
51292;SDS011;37377;45.186;9.778;2023-09-30T09:21:54;54.35;;;31.13;;
51292;SDS011;37377;45.186;9.778;2023-09-30T09:24:28;53.55;;;30.13;;
51292;SDS011;37377;45.186;9.778;2023-09-30T09:27:09;42.92;;;30.30;;
51292;SDS011;37377;45.186;9.778;2023-09-30T09:29:38;46.70;;;31.17;;
51292;SDS011;37377;45.186;9.778;2023-09-30T09:32:16;43.42;;;32.03;;
51292;SDS011;37377;45.186;9.778;2023-09-30T09:34:43;47.85;;;32.80;;
51292;SDS011;37377;45.186;9.778;2023-09-30T09:39:51;49.35;;;30.05;;
51292;SDS011;37377;45.186;9.778;2023-09-30T09:42:23;35.15;;;28.67;;
51292;SDS011;37377;45.186;9.778;2023-09-30T09:44:54;44.88;;;28.73;;
51292;SDS011;37377;45.186;9.778;2023-09-30T09:47:22;43.67;;;29.40;;
51292;SDS011;37377;45.186;9.778;2023-09-30T09:49:50;58.38;;;29.98;;
51292;SDS011;37377;45.186;9.778;2023-09-30T09:52:18;47.25;;;30.13;;
51292;SDS011;37377;45.186;9.778;2023-09-30T09:54:46;46.17;;;29.15;;
51292;SDS011;37377;45.186;9.778;2023-09-30T09:57:16;49.30;;;32.75;;
51292;SDS011;37377;45.186;9.778;2023-09-30T09:59:43;41.55;;;32.33;;
51292;SDS011;37377;45.186;9.778;2023-09-30T10:02:16;48.67;;;34.10;;
51292;SDS011;37377;45.186;9.778;2023-09-30T10:04:44;50.28;;;33.63;;
51292;SDS011;37377;45.186;9.778;2023-09-30T10:07:13;45.75;;;31.83;;
51292;SDS011;37377;45.186;9.778;2023-09-30T10:09:43;50.65;;;31.20;;
51292;SDS011;37377;45.186;9.778;2023-09-30T10:12:14;53.10;;;30.77;;
51292;SDS011;37377;45.186;9.778;2023-09-30T10:14:42;45.08;;;27.58;;
51292;SDS011;37377;45.186;9.778;2023-09-30T10:17:09;44.55;;;28.02;;
51292;SDS011;37377;45.186;9.778;2023-09-30T10:19:36;51.78;;;28.13;;
51292;SDS011;37377;45.186;9.778;2023-09-30T10:22:21;46.08;;;29.02;;
51292;SDS011;37377;45.186;9.778;2023-09-30T10:24:49;53.33;;;41.83;;
51292;SDS011;37377;45.186;9.778;2023-09-30T10:40:49;39.85;;;29.60;;
51292;SDS011;37377;45.186;9.778;2023-09-30T10:46:29;40.03;;;28.35;;
51292;SDS011;37377;45.186;9.778;2023-09-30T10:48:54;38.08;;;25.65;;
51292;SDS011;37377;45.186;9.778;2023-09-30T10:51:22;37.70;;;25.33;;
51292;SDS011;37377;45.186;9.778;2023-09-30T10:53:49;43.15;;;25.90;;
51292;SDS011;37377;45.186;9.778;2023-09-30T10:56:35;56.33;;;26.70;;
51292;SDS011;37377;45.186;9.778;2023-09-30T10:59:02;37.63;;;23.92;;
51292;SDS011;37377;45.186;9.778;2023-09-30T11:01:33;37.85;;;28.63;;
51292;SDS011;37377;45.186;9.778;2023-09-30T11:04:02;55.70;;;29.63;;
51292;SDS011;37377;45.186;9.778;2023-09-30T11:06:32;43.95;;;29.20;;
51292;SDS011;37377;45.186;9.778;2023-09-30T11:08:59;42.60;;;27.65;;
51292;SDS011;37377;45.186;9.778;2023-09-30T11:11:47;46.08;;;29.40;;
51292;SDS011;37377;45.186;9.778;2023-09-30T11:14:28;43.22;;;28.27;;
51292;SDS011;37377;45.186;9.778;2023-09-30T11:16:59;42.55;;;27.10;;
51292;SDS011;37377;45.186;9.778;2023-09-30T11:19:45;34.10;;;25.60;;
51292;SDS011;37377;45.186;9.778;2023-09-30T11:22:13;40.75;;;25.98;;
51292;SDS011;37377;45.186;9.778;2023-09-30T11:24:42;45.40;;;25.60;;
51292;SDS011;37377;45.186;9.778;2023-09-30T11:27:09;39.40;;;26.00;;
51292;SDS011;37377;45.186;9.778;2023-09-30T11:29:35;36.70;;;24.30;;
51292;SDS011;37377;45.186;9.778;2023-09-30T11:32:02;44.25;;;25.40;;
51292;SDS011;37377;45.186;9.778;2023-09-30T11:34:33;40.50;;;23.85;;
51292;SDS011;37377;45.186;9.778;2023-09-30T11:37:05;39.08;;;21.20;;
51292;SDS011;37377;45.186;9.778;2023-09-30T11:39:32;32.28;;;21.13;;
51292;SDS011;37377;45.186;9.778;2023-09-30T11:42:00;34.28;;;22.52;;
51292;SDS011;37377;45.186;9.778;2023-09-30T11:44:28;34.53;;;21.90;;
51292;SDS011;37377;45.186;9.778;2023-09-30T11:46:58;41.40;;;20.80;;
51292;SDS011;37377;45.186;9.778;2023-09-30T11:49:35;43.42;;;22.85;;
51292;SDS011;37377;45.186;9.778;2023-09-30T11:52:06;38.55;;;21.17;;
51292;SDS011;37377;45.186;9.778;2023-09-30T11:54:38;41.65;;;21.33;;
51292;SDS011;37377;45.186;9.778;2023-09-30T11:57:08;34.75;;;20.77;;
51292;SDS011;37377;45.186;9.778;2023-09-30T11:59:39;37.00;;;20.13;;
51292;SDS011;37377;45.186;9.778;2023-09-30T12:02:11;31.90;;;19.60;;
51292;SDS011;37377;45.186;9.778;2023-09-30T12:04:41;43.30;;;20.05;;
51292;SDS011;37377;45.186;9.778;2023-09-30T12:07:09;32.42;;;19.67;;
51292;SDS011;37377;45.186;9.778;2023-09-30T12:09:36;31.85;;;19.30;;
51292;SDS011;37377;45.186;9.778;2023-09-30T12:12:04;36.05;;;20.10;;
51292;SDS011;37377;45.186;9.778;2023-09-30T12:14:35;23.95;;;17.90;;
51292;SDS011;37377;45.186;9.778;2023-09-30T12:17:02;39.25;;;19.75;;
51292;SDS011;37377;45.186;9.778;2023-09-30T12:19:29;31.48;;;21.15;;
51292;SDS011;37377;45.186;9.778;2023-09-30T12:21:56;33.25;;;20.08;;
51292;SDS011;37377;45.186;9.778;2023-09-30T12:24:23;32.17;;;19.27;;
51292;SDS011;37377;45.186;9.778;2023-09-30T12:26:51;34.80;;;19.85;;
51292;SDS011;37377;45.186;9.778;2023-09-30T12:29:19;37.35;;;20.10;;
51292;SDS011;37377;45.186;9.778;2023-09-30T12:31:49;38.70;;;21.67;;
51292;SDS011;37377;45.186;9.778;2023-09-30T12:34:19;33.28;;;21.30;;
51292;SDS011;37377;45.186;9.778;2023-09-30T12:36:46;41.30;;;22.33;;
51292;SDS011;37377;45.186;9.778;2023-09-30T12:39:14;38.28;;;21.15;;
51292;SDS011;37377;45.186;9.778;2023-09-30T12:41:43;29.52;;;20.60;;
51292;SDS011;37377;45.186;9.778;2023-09-30T12:44:12;33.47;;;21.02;;
51292;SDS011;37377;45.186;9.778;2023-09-30T12:46:40;39.75;;;21.05;;
51292;SDS011;37377;45.186;9.778;2023-09-30T12:49:07;37.63;;;21.15;;
51292;SDS011;37377;45.186;9.778;2023-09-30T12:51:35;31.73;;;22.45;;
51292;SDS011;37377;45.186;9.778;2023-09-30T12:54:03;39.35;;;23.13;;
51292;SDS011;37377;45.186;9.778;2023-09-30T12:56:30;37.60;;;22.00;;
51292;SDS011;37377;45.186;9.778;2023-09-30T12:58:58;28.05;;;21.27;;
51292;SDS011;37377;45.186;9.778;2023-09-30T13:01:26;35.17;;;20.02;;
51292;SDS011;37377;45.186;9.778;2023-09-30T13:03:55;38.70;;;21.00;;
51292;SDS011;37377;45.186;9.778;2023-09-30T13:06:22;33.33;;;22.33;;
51292;SDS011;37377;45.186;9.778;2023-09-30T13:08:49;37.03;;;22.52;;
51292;SDS011;37377;45.186;9.778;2023-09-30T13:11:16;40.53;;;22.83;;
51292;SDS011;37377;45.186;9.778;2023-09-30T13:13:44;37.90;;;21.52;;
51292;SDS011;37377;45.186;9.778;2023-09-30T13:16:12;29.88;;;21.27;;
51292;SDS011;37377;45.186;9.778;2023-09-30T13:18:39;36.75;;;21.27;;
51292;SDS011;37377;45.186;9.778;2023-09-30T13:21:06;31.83;;;19.83;;
51292;SDS011;37377;45.186;9.778;2023-09-30T13:23:39;35.25;;;18.48;;
51292;SDS011;37377;45.186;9.778;2023-09-30T13:26:06;25.73;;;17.15;;
51292;SDS011;37377;45.186;9.778;2023-09-30T13:28:33;29.85;;;19.23;;
51292;SDS011;37377;45.186;9.778;2023-09-30T13:31:00;23.23;;;17.38;;
51292;SDS011;37377;45.186;9.778;2023-09-30T13:33:27;30.27;;;19.50;;
51292;SDS011;37377;45.186;9.778;2023-09-30T13:35:56;30.83;;;19.48;;
51292;SDS011;37377;45.186;9.778;2023-09-30T13:38:23;30.73;;;18.80;;
51292;SDS011;37377;45.186;9.778;2023-09-30T13:40:50;32.35;;;21.73;;
51292;SDS011;37377;45.186;9.778;2023-09-30T13:43:17;25.77;;;17.65;;
51292;SDS011;37377;45.186;9.778;2023-09-30T13:45:44;31.95;;;17.73;;
51292;SDS011;37377;45.186;9.778;2023-09-30T13:48:11;39.60;;;19.17;;
51292;SDS011;37377;45.186;9.778;2023-09-30T13:50:38;27.02;;;19.13;;
51292;SDS011;37377;45.186;9.778;2023-09-30T13:53:05;34.60;;;20.92;;
51292;SDS011;37377;45.186;9.778;2023-09-30T13:55:32;34.55;;;20.17;;
51292;SDS011;37377;45.186;9.778;2023-09-30T13:57:59;27.95;;;19.40;;
51292;SDS011;37377;45.186;9.778;2023-09-30T14:00:26;35.55;;;18.02;;
51292;SDS011;37377;45.186;9.778;2023-09-30T14:02:53;37.08;;;15.43;;
51292;SDS011;37377;45.186;9.778;2023-09-30T14:05:20;27.90;;;15.65;;
51292;SDS011;37377;45.186;9.778;2023-09-30T14:07:47;30.02;;;15.40;;
51292;SDS011;37377;45.186;9.778;2023-09-30T14:10:15;37.67;;;15.07;;
51292;SDS011;37377;45.186;9.778;2023-09-30T14:12:42;31.88;;;17.15;;
51292;SDS011;37377;45.186;9.778;2023-09-30T14:15:09;20.98;;;14.18;;
51292;SDS011;37377;45.186;9.778;2023-09-30T14:17:37;23.10;;;13.65;;
51292;SDS011;37377;45.186;9.778;2023-09-30T14:20:04;25.10;;;14.18;;
51292;SDS011;37377;45.186;9.778;2023-09-30T14:22:33;26.90;;;14.30;;
51292;SDS011;37377;45.186;9.778;2023-09-30T14:25:00;28.52;;;15.00;;
51292;SDS011;37377;45.186;9.778;2023-09-30T14:27:27;23.00;;;15.82;;
51292;SDS011;37377;45.186;9.778;2023-09-30T14:29:54;26.27;;;15.70;;
51292;SDS011;37377;45.186;9.778;2023-09-30T14:32:21;22.13;;;15.05;;
51292;SDS011;37377;45.186;9.778;2023-09-30T14:34:48;27.58;;;16.48;;
51292;SDS011;37377;45.186;9.778;2023-09-30T14:37:15;30.52;;;15.27;;
51292;SDS011;37377;45.186;9.778;2023-09-30T14:39:43;31.33;;;13.55;;
51292;SDS011;37377;45.186;9.778;2023-09-30T14:42:10;25.35;;;13.95;;
51292;SDS011;37377;45.186;9.778;2023-09-30T14:44:37;20.88;;;13.88;;
51292;SDS011;37377;45.186;9.778;2023-09-30T14:47:04;23.38;;;14.02;;
51292;SDS011;37377;45.186;9.778;2023-09-30T14:49:31;34.47;;;15.65;;
51292;SDS011;37377;45.186;9.778;2023-09-30T14:51:58;25.25;;;16.73;;
51292;SDS011;37377;45.186;9.778;2023-09-30T14:54:25;23.40;;;14.40;;
51292;SDS011;37377;45.186;9.778;2023-09-30T14:56:52;26.88;;;20.20;;
51292;SDS011;37377;45.186;9.778;2023-09-30T14:59:19;28.88;;;16.02;;
51292;SDS011;37377;45.186;9.778;2023-09-30T15:01:46;34.97;;;19.08;;
51292;SDS011;37377;45.186;9.778;2023-09-30T15:04:13;30.08;;;15.95;;
51292;SDS011;37377;45.186;9.778;2023-09-30T15:06:42;19.67;;;13.25;;
51292;SDS011;37377;45.186;9.778;2023-09-30T15:09:08;28.38;;;14.27;;
51292;SDS011;37377;45.186;9.778;2023-09-30T15:11:38;44.85;;;15.10;;
51292;SDS011;37377;45.186;9.778;2023-09-30T15:14:06;30.75;;;15.07;;
51292;SDS011;37377;45.186;9.778;2023-09-30T15:16:33;32.35;;;14.07;;